Rechercher aéroport 
image banner adimage banner adimage banner ad
image banner ad

KOQN - Brandywine

Situé à West Chester, United States

ICAO - OQN, IATA -

Données fournies par Airmate  

Information générale

Coordonnées: N39°59'24" W75°34'55"
Élévation : 465 feet MSL.
Variation magnétique : -12° East
Voir autres Aéroports à Pennsylvania

Données opérationnelles

Special qualification required
Heure actuelle UTC:
Heure actuelle locale:
Météo
METAR: KOQN 291535Z AUTO 14004KT 10SM SCT013 BKN019 BKN025 25/21 A2999 RMK AO2
Voir NOTAMs / SUP AIP / TFR affectant cet aéroport [VIEW]
Fréquences de communication: [VIEW]

Pistes:

Identifiant RWYQFULongueur (ft)Largeur (ft)SurfaceLDA (ft)
0977°334750ASPH
27257°334750ASPH

Coordonnées de l'aéroport

Adresse: West Chester United States

Autres services d'aviation

Écoles de pilotage

Brandywine Flight School

Brandywine Flight School

Liberty Flight School

Liberty Flight School

Vue satellite de KOQN